Time;durP1;ratioP1;P1;durP2;ratioP2;P2;SDS_P1;SDS_P2;PMS_P1;PMS_P2;Temp;Humidity;BMP_temperature;BMP_pressure;BME280_temperature;BME280_humidity;BME280_pressure;Samples;Min_cycle;Max_cycle;Signal;HPM_P1;HPM_P2
2021/12/17 00:00:31;;;;;;;7.97;4.83;;;10.80;99.90;;;;;;6176525;23;20185;-90
2021/12/17 00:06:04;;;;;;;6.87;4.80;;;10.80;99.90;;;;;;6200565;23;20198;-89
2021/12/17 00:08:30;;;;;;;12.80;6.23;;;10.90;99.90;;;;;;6178271;23;20206;-89
2021/12/17 00:10:56;;;;;;;7.67;5.93;;;10.90;99.90;;;;;;6178059;23;20556;-89
2021/12/17 00:13:22;;;;;;;7.73;4.77;;;10.90;99.90;;;;;;6201927;23;20199;-89
2021/12/17 00:15:48;;;;;;;10.20;6.07;;;10.90;99.90;;;;;;6201650;23;20197;-89
2021/12/17 00:18:25;;;;;;;10.47;5.30;;;10.80;99.90;;;;;;6177468;23;20878;-90
2021/12/17 00:53:16;;;;;;;7.73;5.17;;;10.80;99.90;;;;;;6148033;23;20231;-89
2021/12/17 00:55:41;;;;;;;11.93;5.17;;;10.80;99.90;;;;;;6148055;23;20195;-90
2021/12/17 00:58:07;;;;;;;10.40;5.50;;;10.80;99.90;;;;;;6147686;23;20323;-88
2021/12/17 01:00:33;;;;;;;8.87;5.57;;;10.80;99.90;;;;;;6146800;23;20171;-89
2021/12/17 01:02:59;;;;;;;20.20;5.90;;;10.80;99.90;;;;;;6148994;23;20167;-88
2021/12/17 01:05:27;;;;;;;14.13;7.27;;;10.80;99.90;;;;;;6171837;23;20300;-90
2021/12/17 01:07:55;;;;;;;6.57;5.90;;;10.80;99.90;;;;;;6146198;23;20195;-90
2021/12/17 01:10:29;;;;;;;14.47;5.63;;;10.80;99.90;;;;;;6145664;23;20195;-90
2021/12/17 01:12:56;;;;;;;13.30;6.70;;;10.80;99.90;;;;;;6145396;23;20289;-87
2021/12/17 01:15:22;;;;;;;17.60;5.57;;;10.80;99.90;;;;;;6170366;23;20156;-88
2021/12/17 01:17:52;;;;;;;9.53;4.83;;;10.70;99.90;;;;;;6146273;23;20164;-88
2021/12/17 01:20:32;;;;;;;10.50;4.23;;;10.80;99.90;;;;;;6146490;23;20198;-89
2021/12/17 01:25:44;;;;;;;5.17;3.90;;;10.70;99.90;;;;;;6168626;23;20187;-89
2021/12/17 01:36:28;;;;;;;9.27;5.27;;;10.80;99.90;;;;;;6145987;23;20562;-89
2021/12/17 01:44:23;;;;;;;6.87;4.27;;;10.70;99.90;;;;;;6166154;23;20202;-88
2021/12/17 01:46:51;;;;;;;3.67;3.00;;;10.70;99.90;;;;;;6145427;23;20250;-91
2021/12/17 01:55:40;;;;;;;9.60;4.73;;;10.70;99.90;;;;;;6156907;23;20207;-89
2021/12/17 02:00:28;;;;;;;7.37;4.60;;;10.60;99.90;;;;;;6147882;23;20156;-89
2021/12/17 02:02:58;;;;;;;4.00;3.50;;;10.50;99.90;;;;;;6146490;23;20253;-87
2021/12/17 02:05:23;;;;;;;8.40;5.37;;;10.50;99.90;;;;;;6146183;23;20191;-87
2021/12/17 02:07:53;;;;;;;11.70;3.73;;;10.50;99.90;;;;;;6145900;23;20206;-87
2021/12/17 02:10:56;;;;;;;5.40;3.67;;;10.50;99.90;;;;;;6146101;23;20199;-89
2021/12/17 02:32:02;;;;;;;7.20;1.93;;;10.40;99.90;;;;;;6147575;23;20218;-90
2021/12/17 02:35:24;;;;;;;4.00;1.73;;;10.40;99.90;;;;;;6145690;23;20265;-89
2021/12/17 02:37:21;;;;;;;2.93;1.67;;;10.40;99.90;;;;;;6144455;23;20201;-89
2021/12/17 02:45:31;;;;;;;7.93;2.53;;;10.30;99.90;;;;;;6168205;23;20239;-88
2021/12/17 02:45:32;;;;;;;2.67;2.47;;;10.40;99.90;;;;;;6163053;23;20156;-89
2021/12/17 02:48:10;;;;;;;6.07;2.57;;;10.30;99.90;;;;;;6169175;23;20147;-90
2021/12/17 02:50:40;;;;;;;4.83;2.23;;;10.30;99.90;;;;;;6149101;23;20209;-90
2021/12/17 02:53:09;;;;;;;8.40;2.30;;;10.30;99.90;;;;;;6147932;23;20195;-90
2021/12/17 02:55:41;;;;;;;3.50;2.23;;;10.30;99.90;;;;;;6160999;23;20198;-90
2021/12/17 02:58:08;;;;;;;4.63;2.07;;;10.30;99.90;;;;;;6147595;23;20698;-90
2021/12/17 03:00:36;;;;;;;5.00;2.20;;;10.20;99.90;;;;;;6147638;23;20615;-90
2021/12/17 03:03:04;;;;;;;8.37;1.47;;;10.20;99.90;;;;;;6149683;23;20163;-90
2021/12/17 03:05:30;;;;;;;1.73;1.13;;;10.30;99.90;;;;;;6149097;23;20287;-90
2021/12/17 03:07:56;;;;;;;3.23;1.73;;;10.30;99.90;;;;;;6172272;23;20278;-89
2021/12/17 03:10:23;;;;;;;10.10;3.53;;;10.20;99.90;;;;;;6185792;23;20195;-90
2021/12/17 03:12:53;;;;;;;7.67;2.30;;;10.20;99.90;;;;;;6172301;23;20187;-88
2021/12/17 03:23:32;;;;;;;6.83;1.97;;;10.20;99.90;;;;;;6148759;23;20238;-89
2021/12/17 03:26:08;;;;;;;9.37;2.90;;;10.30;99.90;;;;;;6170341;23;20199;-89
2021/12/17 03:28:35;;;;;;;5.30;3.33;;;10.30;99.90;;;;;;6172211;23;20310;-89
2021/12/17 03:31:01;;;;;;;5.43;3.10;;;10.20;99.90;;;;;;6146566;23;20192;-89
2021/12/17 03:33:27;;;;;;;6.77;3.80;;;10.30;99.90;;;;;;6146035;23;20159;-89
2021/12/17 03:35:53;;;;;;;4.97;2.57;;;10.30;99.90;;;;;;6146277;23;20214;-89
2021/12/17 03:38:20;;;;;;;7.67;2.60;;;10.20;99.90;;;;;;6170569;23;20206;-89
2021/12/17 03:40:47;;;;;;;5.13;3.43;;;10.20;99.90;;;;;;6171025;23;20530;-89
2021/12/17 03:43:21;;;;;;;6.17;3.50;;;10.30;99.90;;;;;;6147227;23;20274;-90
2021/12/17 03:45:47;;;;;;;7.67;3.10;;;10.20;99.90;;;;;;6169968;23;20947;-89
2021/12/17 03:48:13;;;;;;;11.23;4.80;;;10.20;99.90;;;;;;6148379;23;20199;-89
2021/12/17 03:50:39;;;;;;;5.00;2.67;;;10.20;99.90;;;;;;6146211;23;20198;-89
2021/12/17 03:53:07;;;;;;;5.93;4.60;;;10.20;99.90;;;;;;6172345;23;20666;-88
2021/12/17 03:55:33;;;;;;;9.00;3.40;;;10.30;99.90;;;;;;6146806;23;20911;-90
2021/12/17 03:58:00;;;;;;;8.87;2.87;;;10.30;99.90;;;;;;6147256;23;20235;-88
2021/12/17 04:00:26;;;;;;;4.33;2.77;;;10.30;99.90;;;;;;6147622;23;20156;-90
2021/12/17 04:02:52;;;;;;;5.37;2.97;;;10.30;99.90;;;;;;6149013;23;20279;-91
2021/12/17 04:05:18;;;;;;;6.80;3.07;;;10.30;99.90;;;;;;6147488;23;20249;-90
2021/12/17 04:07:44;;;;;;;2.87;2.17;;;10.30;99.90;;;;;;6152557;23;20233;-89
2021/12/17 04:10:10;;;;;;;10.00;3.50;;;10.30;99.90;;;;;;6167335;23;20556;-89
2021/12/17 04:12:50;;;;;;;4.30;3.17;;;10.30;99.90;;;;;;6147886;23;20160;-87
2021/12/17 04:15:16;;;;;;;5.60;2.40;;;10.30;99.90;;;;;;6169643;23;20186;-89
2021/12/17 04:17:47;;;;;;;7.67;2.57;;;10.30;99.90;;;;;;6147091;23;20527;-90
2021/12/17 04:20:13;;;;;;;6.40;3.90;;;10.30;99.90;;;;;;6147214;23;20199;-89
2021/12/17 04:22:39;;;;;;;6.10;2.17;;;10.40;99.90;;;;;;6148045;23;20218;-90
2021/12/17 04:25:05;;;;;;;6.33;2.83;;;10.40;99.90;;;;;;6147830;23;20635;-89
2021/12/17 04:27:31;;;;;;;6.23;3.60;;;10.40;99.90;;;;;;6171706;23;20156;-91
2021/12/17 04:29:57;;;;;;;5.40;2.90;;;10.40;99.90;;;;;;6148267;23;20197;-90
2021/12/17 04:32:23;;;;;;;5.33;2.87;;;10.40;99.90;;;;;;6146454;23;20922;-90
2021/12/17 04:34:49;;;;;;;7.93;2.37;;;10.40;99.90;;;;;;6146748;23;20226;-90
2021/12/17 04:37:15;;;;;;;5.03;3.50;;;10.40;99.90;;;;;;6160123;23;20237;-91
2021/12/17 04:39:41;;;;;;;7.13;2.17;;;10.50;99.90;;;;;;6201530;23;20194;-90
2021/12/17 04:42:15;;;;;;;3.93;2.27;;;10.50;99.90;;;;;;6177496;23;20162;-90
2021/12/17 04:44:49;;;;;;;5.87;3.40;;;10.50;99.90;;;;;;6176299;23;20194;-88
2021/12/17 04:57:53;;;;;;;29.53;4.00;;;10.50;99.90;;;;;;6197300;23;20207;-91
2021/12/17 05:00:23;;;;;;;6.20;4.10;;;10.50;99.90;;;;;;6202159;23;20493;-90
2021/12/17 05:02:53;;;;;;;5.27;2.53;;;10.60;99.90;;;;;;6176725;23;20642;-88
2021/12/17 05:05:21;;;;;;;11.50;2.37;;;10.60;99.90;;;;;;6177182;23;20194;-87
2021/12/17 05:07:56;;;;;;;4.60;2.67;;;10.50;99.90;;;;;;6175797;23;20197;-89
2021/12/17 05:10:48;;;;;;;4.27;2.77;;;10.50;99.90;;;;;;6198087;23;20260;-89
2021/12/17 05:19:00;;;;;;;10.70;4.00;;;10.50;99.90;;;;;;6177315;23;20653;-90
2021/12/17 05:21:27;;;;;;;9.70;3.23;;;10.50;99.90;;;;;;6174693;23;20151;-90
2021/12/17 05:23:52;;;;;;;4.63;3.57;;;10.50;99.90;;;;;;6175375;23;20163;-89
2021/12/17 05:26:21;;;;;;;14.90;2.87;;;10.50;99.90;;;;;;6175522;23;20225;-89
2021/12/17 05:28:48;;;;;;;8.53;2.73;;;10.50;99.90;;;;;;6175480;23;20298;-89
2021/12/17 05:31:16;;;;;;;6.33;4.13;;;10.50;99.90;;;;;;6176911;23;20200;-89
2021/12/17 05:33:42;;;;;;;9.63;3.43;;;10.50;99.90;;;;;;6175332;23;20201;-89
2021/12/17 05:36:08;;;;;;;6.93;3.97;;;10.50;99.90;;;;;;6176911;23;20548;-88
2021/12/17 05:38:34;;;;;;;8.50;3.07;;;10.50;99.90;;;;;;6176759;23;20198;-90
2021/12/17 05:41:00;;;;;;;9.67;4.00;;;10.60;99.90;;;;;;6176031;23;20198;-88
2021/12/17 05:43:26;;;;;;;6.57;3.07;;;10.60;99.90;;;;;;6175999;23;20210;-89
2021/12/17 05:48:26;;;;;;;7.83;2.53;;;10.70;99.90;;;;;;6199953;23;20198;-89
2021/12/17 05:51:01;;;;;;;2.20;1.97;;;10.60;99.90;;;;;;6176414;23;20166;-88
2021/12/17 05:53:30;;;;;;;7.47;3.13;;;10.60;99.90;;;;;;6176974;23;20519;-89
2021/12/17 05:55:57;;;;;;;19.40;3.67;;;10.60;99.90;;;;;;6176688;23;20677;-90
2021/12/17 05:58:24;;;;;;;9.87;4.47;;;10.60;99.90;;;;;;6177213;23;20224;-89
2021/12/17 06:00:50;;;;;;;13.17;4.90;;;10.60;99.90;;;;;;6177346;23;20208;-89
2021/12/17 06:03:18;;;;;;;5.37;2.13;;;10.60;99.90;;;;;;6201096;23;20681;-88
2021/12/17 06:05:44;;;;;;;5.27;3.43;;;10.60;99.90;;;;;;6147008;23;20277;-88
2021/12/17 06:08:10;;;;;;;7.10;3.67;;;10.60;99.90;;;;;;6145977;23;20661;-89
2021/12/17 06:10:35;;;;;;;7.80;3.17;;;10.60;99.90;;;;;;6147086;23;20191;-89
2021/12/17 06:13:01;;;;;;;11.40;5.30;;;10.60;99.90;;;;;;6147388;23;20191;-90
2021/12/17 06:15:27;;;;;;;4.60;2.53;;;10.60;99.90;;;;;;6170817;23;20250;-88
2021/12/17 06:17:54;;;;;;;5.83;4.50;;;10.60;99.90;;;;;;6146163;23;20167;-89
2021/12/17 06:20:20;;;;;;;7.67;3.20;;;10.60;99.90;;;;;;6147575;23;20262;-89
2021/12/17 06:22:50;;;;;;;6.50;2.00;;;10.60;99.90;;;;;;6170121;23;20202;-89
2021/12/17 06:25:16;;;;;;;3.87;2.43;;;10.60;99.90;;;;;;6147443;23;20187;-89
2021/12/17 06:27:42;;;;;;;6.33;3.93;;;10.60;99.90;;;;;;6145822;23;20195;-87
2021/12/17 06:30:11;;;;;;;4.43;2.87;;;10.50;99.90;;;;;;6147183;23;20195;-90
2021/12/17 06:32:37;;;;;;;4.93;3.20;;;10.60;99.90;;;;;;6170856;23;20199;-88
2021/12/17 06:35:05;;;;;;;11.03;4.13;;;10.60;99.90;;;;;;6169015;23;20206;-89
2021/12/17 06:37:30;;;;;;;8.83;2.63;;;10.60;99.90;;;;;;6160757;23;20249;-89
2021/12/17 06:39:58;;;;;;;11.53;3.07;;;10.60;99.90;;;;;;6155085;23;20251;-89
2021/12/17 06:42:26;;;;;;;6.47;2.80;;;10.60;99.90;;;;;;6175205;23;20177;-89
2021/12/17 06:44:55;;;;;;;4.40;2.80;;;10.60;99.90;;;;;;6200556;23;20187;-88
2021/12/17 06:47:31;;;;;;;6.23;3.00;;;10.60;99.90;;;;;;6176949;23;20601;-88
2021/12/17 07:20:31;;;;;;;5.90;3.03;;;10.60;99.90;;;;;;6194745;23;20966;-87
2021/12/17 07:35:48;;;;;;;6.77;3.97;;;10.70;99.90;;;;;;6148627;23;20285;-89
2021/12/17 07:41:00;;;;;;;6.50;3.17;;;10.70;99.90;;;;;;6150492;23;20207;-85
2021/12/17 07:43:37;;;;;;;7.93;3.43;;;10.70;99.90;;;;;;6164219;23;20241;-87
2021/12/17 07:46:08;;;;;;;7.73;3.67;;;10.70;99.90;;;;;;6201877;23;20209;-89
2021/12/17 07:48:35;;;;;;;8.00;2.87;;;10.70;99.90;;;;;;6182303;23;20615;-88
2021/12/17 07:51:03;;;;;;;7.80;3.87;;;10.70;99.90;;;;;;6181802;23;20158;-88
2021/12/17 07:53:30;;;;;;;12.17;3.37;;;10.70;99.90;;;;;;6180370;23;20443;-85
2021/12/17 07:55:57;;;;;;;10.47;3.20;;;10.70;99.90;;;;;;6180104;23;20198;-86
2021/12/17 07:58:24;;;;;;;5.60;3.10;;;10.70;99.90;;;;;;6183089;23;20218;-89
2021/12/17 08:00:50;;;;;;;12.00;4.07;;;10.70;99.90;;;;;;6206940;23;20194;-89
2021/12/17 08:03:16;;;;;;;4.67;2.77;;;10.70;99.90;;;;;;6182742;23;20167;-85
2021/12/17 08:05:42;;;;;;;5.13;1.77;;;10.60;99.90;;;;;;6183676;23;20271;-85
2021/12/17 08:08:09;;;;;;;5.77;2.10;;;10.70;99.90;;;;;;6208411;23;20949;-88
2021/12/17 08:10:35;;;;;;;5.00;3.33;;;10.70;99.90;;;;;;6180276;23;20549;-88
2021/12/17 08:13:01;;;;;;;3.77;2.13;;;10.60;99.90;;;;;;6181025;23;20199;-90
2021/12/17 08:15:35;;;;;;;6.20;3.47;;;10.60;99.90;;;;;;6182428;23;20580;-89
2021/12/17 08:26:39;;;;;;;8.63;2.67;;;10.80;99.90;;;;;;6200086;23;20214;-89
2021/12/17 08:29:27;;;;;;;3.57;2.53;;;10.80;99.90;;;;;;6177827;23;20210;-88
2021/12/17 08:31:54;;;;;;;14.83;2.70;;;10.80;99.90;;;;;;6178845;23;20199;-89
2021/12/17 08:34:20;;;;;;;3.50;3.00;;;10.80;99.90;;;;;;6179191;23;20202;-87
2021/12/17 08:36:46;;;;;;;5.73;3.23;;;10.90;99.90;;;;;;6179760;23;20207;-87
2021/12/17 08:39:12;;;;;;;3.50;2.23;;;10.90;99.90;;;;;;6209329;23;20163;-90
2021/12/17 08:41:40;;;;;;;5.20;2.03;;;10.90;99.90;;;;;;6193764;23;20198;-91
2021/12/17 08:44:06;;;;;;;4.13;2.40;;;11.00;99.90;;;;;;6217592;23;20195;-90
2021/12/17 08:46:33;;;;;;;5.60;2.37;;;11.00;99.90;;;;;;6194428;23;20195;-90
2021/12/17 08:48:59;;;;;;;4.63;1.70;;;11.00;99.90;;;;;;6219899;23;20218;-90
2021/12/17 08:51:25;;;;;;;4.43;2.20;;;11.10;99.90;;;;;;6195306;23;20163;-90
2021/12/17 08:53:52;;;;;;;2.20;1.97;;;11.10;99.90;;;;;;6199226;23;20189;-90
2021/12/17 08:56:20;;;;;;;2.27;1.27;;;11.10;99.90;;;;;;6200601;23;20321;-90
2021/12/17 08:58:55;;;;;;;2.43;2.23;;;11.10;99.90;;;;;;6200280;23;20230;-90
2021/12/17 09:01:20;;;;;;;3.20;2.00;;;11.10;99.90;;;;;;6197447;23;20252;-90
2021/12/17 09:03:47;;;;;;;2.07;1.40;;;11.20;99.90;;;;;;6191899;23;20250;-91
2021/12/17 09:06:15;;;;;;;1.43;0.97;;;11.20;99.90;;;;;;6184386;23;20206;-89
2021/12/17 09:08:41;;;;;;;2.70;1.70;;;11.20;99.90;;;;;;6189808;23;20207;-93
2021/12/17 09:11:34;;;;;;;1.93;1.83;;;11.30;99.90;;;;;;6198030;23;20198;-88
2021/12/17 09:14:28;;;;;;;1.13;0.97;;;11.30;99.90;;;;;;6175476;23;20202;-90
2021/12/17 09:16:55;;;;;;;2.20;1.73;;;11.30;99.90;;;;;;6178085;23;20202;-92
2021/12/17 09:19:21;;;;;;;1.63;1.53;;;11.30;99.90;;;;;;6176636;23;20194;-90
2021/12/17 09:21:50;;;;;;;2.13;1.17;;;11.30;99.90;;;;;;6177354;23;20199;-89
2021/12/17 09:24:16;;;;;;;1.53;1.43;;;11.40;99.90;;;;;;6177610;23;20155;-89
2021/12/17 09:26:41;;;;;;;1.80;1.33;;;11.30;99.90;;;;;;6178007;23;20218;-89
2021/12/17 09:29:10;;;;;;;1.70;1.23;;;11.40;99.90;;;;;;6176427;23;20358;-89
2021/12/17 09:31:39;;;;;;;7.77;2.27;;;11.30;99.90;;;;;;6176034;23;20206;-88
2021/12/17 09:34:10;;;;;;;3.87;2.30;;;11.30;99.90;;;;;;6177534;23;20201;-90
2021/12/17 09:36:39;;;;;;;2.37;1.60;;;11.40;99.90;;;;;;6167210;23;20191;-89
2021/12/17 09:39:09;;;;;;;1.60;1.27;;;11.40;99.90;;;;;;6198687;23;20605;-90
2021/12/17 09:41:40;;;;;;;3.03;1.53;;;11.40;99.90;;;;;;6177325;23;20772;-91
2021/12/17 09:44:12;;;;;;;1.77;1.40;;;11.40;99.90;;;;;;6176832;23;20530;-90
2021/12/17 09:46:41;;;;;;;2.27;1.40;;;11.40;99.90;;;;;;6179171;23;20199;-90
2021/12/17 09:49:10;;;;;;;2.43;1.67;;;11.40;99.90;;;;;;6165341;23;20202;-90
2021/12/17 09:51:41;;;;;;;2.40;1.60;;;11.40;99.90;;;;;;6168575;23;20163;-90
2021/12/17 09:54:07;;;;;;;1.97;1.50;;;11.40;99.90;;;;;;6200764;23;20193;-89
2021/12/17 09:56:33;;;;;;;1.63;1.30;;;11.40;99.90;;;;;;6180335;23;20198;-91
2021/12/17 09:58:59;;;;;;;2.13;1.40;;;11.50;99.90;;;;;;6206494;23;20218;-90
2021/12/17 10:01:27;;;;;;;2.07;1.60;;;11.50;99.90;;;;;;6182461;23;20202;-89
2021/12/17 10:04:28;;;;;;;3.87;1.50;;;11.60;99.90;;;;;;6182427;23;20221;-88
2021/12/17 10:07:26;;;;;;;1.30;1.20;;;11.60;99.90;;;;;;6180100;23;20669;-88
2021/12/17 10:10:04;;;;;;;1.87;1.10;;;11.60;99.90;;;;;;6180554;23;20198;-87
2021/12/17 10:12:37;;;;;;;0.70;0.60;;;11.60;99.90;;;;;;6182014;23;20194;-87
2021/12/17 10:15:14;;;;;;;3.07;1.83;;;11.60;99.90;;;;;;6179005;23;20162;-89
2021/12/17 10:18:02;;;;;;;1.57;1.47;;;11.60;99.90;;;;;;6179754;23;20194;-91
2021/12/17 10:20:41;;;;;;;1.27;1.17;;;11.60;99.90;;;;;;6178883;23;20633;-92
2021/12/17 10:23:12;;;;;;;1.33;1.23;;;11.50;99.90;;;;;;6173309;23;20265;-92
2021/12/17 10:25:44;;;;;;;1.67;1.30;;;11.50;99.90;;;;;;6200720;23;20641;-89
2021/12/17 10:28:11;;;;;;;1.77;1.47;;;11.60;99.90;;;;;;6175424;23;20729;-91
2021/12/17 10:30:40;;;;;;;1.03;0.97;;;11.70;99.90;;;;;;6177257;23;20241;-90
2021/12/17 10:33:08;;;;;;;1.80;1.13;;;11.70;99.90;;;;;;6177361;23;20186;-92
2021/12/17 10:35:38;;;;;;;1.60;1.20;;;11.70;99.90;;;;;;6176285;23;20194;-91
2021/12/17 10:38:14;;;;;;;1.97;1.60;;;11.70;99.90;;;;;;6205306;23;20290;-92
2021/12/17 10:40:50;;;;;;;2.27;1.70;;;11.70;99.90;;;;;;6182883;23;20668;-90
2021/12/17 10:43:36;;;;;;;0.97;0.73;;;11.70;99.90;;;;;;6181031;23;20221;-91
2021/12/17 10:46:20;;;;;;;1.43;0.97;;;11.60;99.90;;;;;;6183018;23;20226;-90
2021/12/17 10:51:32;;;;;;;2.17;1.97;;;11.60;99.90;;;;;;6183647;23;20209;-88
2021/12/17 10:54:06;;;;;;;2.63;1.30;;;11.60;99.90;;;;;;6150552;23;20179;-91
2021/12/17 10:56:34;;;;;;;0.97;0.80;;;11.60;99.90;;;;;;6176005;23;20195;-89
2021/12/17 10:59:11;;;;;;;1.07;0.63;;;11.60;99.90;;;;;;6151849;23;20682;-91
2021/12/17 11:01:49;;;;;;;1.03;0.73;;;11.70;99.90;;;;;;6153261;23;20585;-89
2021/12/17 11:04:20;;;;;;;1.53;1.43;;;11.70;99.90;;;;;;6154561;23;20257;-90
2021/12/17 11:06:48;;;;;;;0.70;0.70;;;11.70;99.90;;;;;;6154891;23;20198;-89
2021/12/17 11:09:51;;;;;;;1.60;0.87;;;11.70;99.90;;;;;;6155755;23;20183;-91
2021/12/17 11:12:27;;;;;;;1.23;1.20;;;11.70;99.90;;;;;;6155121;23;21561;-94
2021/12/17 11:15:18;;;;;;;0.60;0.60;;;11.70;99.90;;;;;;6162772;23;20147;-94
2021/12/17 11:17:50;;;;;;;0.73;0.60;;;11.70;99.90;;;;;;6175081;23;20175;-94
2021/12/17 11:22:53;;;;;;;1.43;1.33;;;11.70;99.90;;;;;;6220440;22;20213;-93
2021/12/17 11:25:21;;;;;;;1.50;1.40;;;11.70;99.90;;;;;;6192651;23;20284;-92
2021/12/17 11:27:47;;;;;;;0.93;0.90;;;11.70;99.90;;;;;;6198856;22;20197;-92
2021/12/17 11:30:18;;;;;;;1.00;1.00;;;11.70;99.90;;;;;;6274078;22;20191;-93
2021/12/17 11:32:45;;;;;;;0.93;0.87;;;11.80;99.90;;;;;;6248733;22;20693;-92
2021/12/17 11:35:13;;;;;;;2.17;0.87;;;11.80;99.90;;;;;;6221754;22;20227;-93
2021/12/17 11:37:42;;;;;;;1.07;0.73;;;11.80;99.90;;;;;;6244012;23;20231;-91
2021/12/17 11:40:21;;;;;;;1.13;1.00;;;11.70;99.90;;;;;;6269153;22;20235;-90
2021/12/17 11:43:26;;;;;;;1.93;1.40;;;11.70;99.90;;;;;;6242906;22;20204;-93
2021/12/17 11:46:15;;;;;;;2.50;1.40;;;11.70;99.90;;;;;;6242635;23;20197;-93
2021/12/17 11:48:50;;;;;;;2.00;1.73;;;11.80;99.90;;;;;;6242056;22;20263;-92
2021/12/17 11:51:18;;;;;;;1.13;0.80;;;11.80;99.90;;;;;;6270875;22;20152;-92
2021/12/17 11:53:55;;;;;;;1.87;1.73;;;11.80;99.90;;;;;;6268295;22;20264;-92
2021/12/17 11:56:48;;;;;;;11.57;1.23;;;11.80;99.90;;;;;;6241883;23;20225;-93
2021/12/17 11:59:27;;;;;;;1.07;0.97;;;11.80;99.90;;;;;;6268622;22;20189;-92
2021/12/17 12:02:19;;;;;;;0.93;0.87;;;11.80;99.90;;;;;;6242270;23;20201;-90
2021/12/17 12:04:58;;;;;;;2.30;1.33;;;11.80;99.90;;;;;;6265991;22;20584;-89
2021/12/17 12:07:24;;;;;;;1.20;1.07;;;11.80;99.90;;;;;;6266011;22;20208;-91
2021/12/17 12:09:59;;;;;;;2.17;1.37;;;11.80;99.90;;;;;;6240028;23;20276;-90
2021/12/17 12:12:50;;;;;;;2.87;0.97;;;11.90;99.90;;;;;;6240638;22;20156;-91
2021/12/17 12:15:28;;;;;;;1.17;0.77;;;11.90;99.90;;;;;;6265741;22;20560;-90
2021/12/17 12:17:57;;;;;;;3.00;1.53;;;11.80;99.90;;;;;;6239939;23;20178;-90
2021/12/17 12:20:44;;;;;;;0.90;0.90;;;11.80;99.90;;;;;;6239947;23;20657;-90
2021/12/17 12:23:15;;;;;;;1.40;1.07;;;11.80;99.90;;;;;;6239809;23;20643;-90
2021/12/17 12:25:41;;;;;;;2.00;1.20;;;11.80;99.90;;;;;;6240047;22;20205;-91
2021/12/17 12:28:07;;;;;;;1.63;1.20;;;11.80;99.90;;;;;;6265741;22;20201;-89
2021/12/17 12:30:37;;;;;;;1.33;0.93;;;11.80;99.90;;;;;;6240801;22;20189;-91
2021/12/17 12:33:07;;;;;;;6.90;1.07;;;11.90;99.90;;;;;;6269222;22;20191;-89
2021/12/17 12:35:34;;;;;;;3.07;1.83;;;11.90;99.90;;;;;;6242798;23;20193;-90
2021/12/17 12:38:16;;;;;;;1.43;0.80;;;11.90;99.90;;;;;;6266655;22;20657;-90
2021/12/17 12:40:45;;;;;;;1.57;1.47;;;11.90;99.90;;;;;;6267869;22;20221;-89
2021/12/17 12:43:30;;;;;;;2.07;0.97;;;11.90;99.90;;;;;;6242359;22;20213;-90
2021/12/17 12:45:56;;;;;;;1.87;1.00;;;11.80;99.90;;;;;;6265906;22;20193;-89
2021/12/17 12:48:38;;;;;;;1.90;0.87;;;11.90;99.90;;;;;;6265676;22;20579;-89
2021/12/17 12:51:16;;;;;;;1.70;1.37;;;11.90;99.90;;;;;;6240617;23;20629;-89
2021/12/17 12:54:02;;;;;;;3.20;1.43;;;11.90;99.90;;;;;;6241074;23;20657;-90
2021/12/17 12:56:29;;;;;;;0.97;0.90;;;11.90;99.90;;;;;;6242897;23;20525;-91
2021/12/17 12:58:54;;;;;;;1.27;1.17;;;11.90;99.90;;;;;;6269916;22;20201;-91
2021/12/17 13:01:21;;;;;;;2.03;1.37;;;11.80;99.90;;;;;;6244246;22;20197;-91
2021/12/17 13:03:48;;;;;;;1.30;1.10;;;11.80;99.90;;;;;;6241394;22;20197;-90
2021/12/17 13:06:19;;;;;;;0.93;0.87;;;11.80;99.90;;;;;;6265799;22;20210;-92
2021/12/17 13:08:58;;;;;;;1.60;0.83;;;11.80;99.90;;;;;;6271664;22;20203;-90
2021/12/17 13:11:24;;;;;;;2.33;1.47;;;11.80;99.90;;;;;;6194642;23;20216;-90
2021/12/17 13:13:56;;;;;;;1.67;1.00;;;11.80;99.90;;;;;;6179445;23;20206;-90
2021/12/17 13:24:29;;;;;;;1.53;1.40;;;12.00;99.90;;;;;;6191480;23;20609;-93
2021/12/17 13:27:10;;;;;;;1.43;1.03;;;12.00;99.90;;;;;;6209573;23;20181;-93
2021/12/17 13:29:43;;;;;;;0.50;0.50;;;12.00;99.90;;;;;;6185230;23;20660;-92
2021/12/17 14:22:28;;;;;;;5.50;1.13;;;11.50;99.90;;;;;;5005320;27;2027475;-86
2021/12/17 14:24:58;;;;;;;1.00;0.90;;;11.40;99.90;;;;;;5062105;28;20239;-87
2021/12/17 14:27:46;;;;;;;1.03;1.03;;;11.50;99.90;;;;;;5044949;28;20193;-89
2021/12/17 14:30:13;;;;;;;1.13;1.03;;;11.50;99.90;;;;;;5061824;28;20189;-88
2021/12/17 14:32:49;;;;;;;2.30;1.77;;;11.50;99.90;;;;;;5061992;28;20682;-88
2021/12/17 14:35:35;;;;;;;1.10;1.07;;;11.50;99.90;;;;;;5062606;28;20316;-89
2021/12/17 14:38:03;;;;;;;1.43;1.27;;;11.50;99.90;;;;;;5061315;28;20598;-88
2021/12/17 14:40:37;;;;;;;1.93;1.83;;;11.50;99.90;;;;;;5061815;28;20221;-87
2021/12/17 14:43:17;;;;;;;2.27;1.07;;;11.60;99.90;;;;;;5078244;28;20266;-88
2021/12/17 14:45:57;;;;;;;1.53;1.40;;;11.50;99.90;;;;;;5045953;28;20260;-87
2021/12/17 14:48:35;;;;;;;1.33;1.23;;;11.50;99.90;;;;;;5059325;28;20201;-88
2021/12/17 15:02:25;;;;;;;1.50;1.30;;;11.60;99.90;;;;;;5062744;28;20228;-88
2021/12/17 15:04:50;;;;;;;2.30;1.03;;;11.50;99.90;;;;;;5048147;28;20712;-87
2021/12/17 15:07:18;;;;;;;2.57;1.30;;;11.50;99.90;;;;;;5027360;28;20247;-88
2021/12/17 15:09:45;;;;;;;1.30;1.17;;;11.50;99.90;;;;;;5044932;28;20217;-86
2021/12/17 15:12:37;;;;;;;2.27;2.13;;;11.40;99.90;;;;;;5046271;28;20213;-92
2021/12/17 15:15:35;;;;;;;1.93;1.47;;;11.40;99.90;;;;;;5061366;28;20260;-87
2021/12/17 15:18:02;;;;;;;1.80;1.70;;;11.50;99.90;;;;;;5058817;28;20221;-86
2021/12/17 15:20:31;;;;;;;1.13;1.03;;;11.50;99.90;;;;;;5060972;28;20587;-87
2021/12/17 15:22:57;;;;;;;1.17;1.07;;;11.50;99.90;;;;;;5076407;28;20213;-87
2021/12/17 15:25:24;;;;;;;5.83;1.53;;;11.40;99.90;;;;;;5061252;28;20257;-89
2021/12/17 15:27:51;;;;;;;2.83;1.50;;;11.40;99.90;;;;;;5060073;28;20251;-88
2021/12/17 15:30:20;;;;;;;1.73;1.43;;;11.40;99.90;;;;;;5060614;28;20194;-86
2021/12/17 15:32:46;;;;;;;5.20;2.33;;;11.40;99.90;;;;;;5053995;28;20217;-87
2021/12/17 15:35:16;;;;;;;2.30;1.47;;;11.40;99.90;;;;;;5049206;28;20736;-86
2021/12/17 15:37:42;;;;;;;1.07;1.07;;;11.30;99.90;;;;;;5051912;28;20218;-87
2021/12/17 15:40:09;;;;;;;2.57;2.47;;;11.30;99.90;;;;;;5036272;28;20221;-88
2021/12/17 15:42:35;;;;;;;1.37;1.13;;;11.30;99.90;;;;;;5048895;28;20569;-86
2021/12/17 15:45:01;;;;;;;4.30;2.50;;;11.30;99.90;;;;;;5043458;28;20450;-87
2021/12/17 15:47:27;;;;;;;2.00;1.40;;;11.30;99.90;;;;;;5048782;28;20226;-90
2021/12/17 15:49:52;;;;;;;1.27;1.03;;;11.30;99.90;;;;;;5038153;28;20296;-88
2021/12/17 15:52:18;;;;;;;1.73;1.37;;;11.30;99.90;;;;;;5035044;28;20249;-91
2021/12/17 15:54:44;;;;;;;1.47;1.00;;;11.30;99.90;;;;;;5014102;28;20218;-88
2021/12/17 15:57:10;;;;;;;5.77;1.20;;;11.30;99.90;;;;;;5047470;28;20538;-87
2021/12/17 15:59:36;;;;;;;1.90;1.73;;;11.20;99.90;;;;;;5047029;28;20283;-90
2021/12/17 16:02:03;;;;;;;3.50;2.60;;;11.20;99.90;;;;;;5047086;28;20218;-86
2021/12/17 16:04:35;;;;;;;4.63;2.13;;;11.20;99.90;;;;;;5043428;28;20218;-88
2021/12/17 16:07:02;;;;;;;4.43;2.37;;;11.20;99.90;;;;;;5042903;28;20222;-90
2021/12/17 16:12:03;;;;;;;2.53;2.33;;;11.10;99.90;;;;;;5047385;28;20330;-87
2021/12/17 16:22:41;;;;;;;7.53;2.67;;;11.00;99.90;;;;;;5046989;28;20257;-87
2021/12/17 16:25:07;;;;;;;3.77;2.47;;;11.00;99.90;;;;;;5013510;28;20281;-93
2021/12/17 16:27:33;;;;;;;5.67;3.43;;;10.90;99.90;;;;;;5047377;28;20198;-96
2021/12/17 16:29:59;;;;;;;7.50;3.00;;;10.90;99.90;;;;;;5034600;28;20202;-88
2021/12/17 16:32:25;;;;;;;2.97;2.20;;;10.90;99.90;;;;;;5038946;28;21095;-92
2021/12/17 16:34:50;;;;;;;4.23;2.47;;;10.90;99.90;;;;;;5030472;28;20213;-89
2021/12/17 16:37:16;;;;;;;4.83;2.67;;;10.80;99.90;;;;;;5045066;28;20230;-89
2021/12/17 16:39:42;;;;;;;8.23;2.07;;;10.90;99.90;;;;;;5045317;28;20226;-88
2021/12/17 16:42:16;;;;;;;3.53;2.10;;;10.90;99.90;;;;;;5029011;28;20201;-90
2021/12/17 16:45:02;;;;;;;3.80;2.53;;;10.80;99.90;;;;;;5026773;28;21162;-90
2021/12/17 16:47:35;;;;;;;4.23;2.60;;;10.80;99.90;;;;;;5043372;28;20734;-91
2021/12/17 16:50:02;;;;;;;10.20;3.27;;;10.80;99.90;;;;;;5042379;28;20237;-92
2021/12/17 16:52:29;;;;;;;5.60;2.93;;;10.80;99.90;;;;;;5041046;28;20260;-88
2021/12/17 16:54:56;;;;;;;4.63;3.10;;;10.80;99.90;;;;;;5042039;28;20233;-87
2021/12/17 16:57:23;;;;;;;3.10;2.57;;;10.70;99.90;;;;;;5025648;28;20193;-88
2021/12/17 16:59:50;;;;;;;2.33;1.60;;;10.80;99.90;;;;;;5026985;28;20182;-90
2021/12/17 17:02:16;;;;;;;3.57;3.00;;;10.70;99.90;;;;;;5043505;28;20225;-88
2021/12/17 17:04:42;;;;;;;3.87;3.13;;;10.70;99.90;;;;;;5026574;28;20221;-89
2021/12/17 17:07:07;;;;;;;3.57;2.17;;;10.70;99.90;;;;;;5028240;28;20213;-89
2021/12/17 17:09:34;;;;;;;3.83;2.10;;;10.70;99.90;;;;;;5044916;28;20194;-90
2021/12/17 17:12:06;;;;;;;6.00;3.27;;;10.80;99.90;;;;;;5028587;28;20586;-89